Wetterdaten: Woche 15.06.15 - 21.06.15 (KW25)
Datum Zeit Temp. A. Feuchte A. Luftdruck Regen Wind Richtung Sonnenschein ET UV Solar Taupunkt Windchill Windben Empfang
15.06.2015 00:00 15,7 C 86 % 1004,6 hPa 0,0 l/m 0,0 km/h (0 Bft) N 0,00 h 0,000 mm 0,0 UV-I 0 W/m 13,4 C 15,7 C 0,0 km/h (0 Bft) 0,00 %
15.06.2015 01:00 14,4 C 89 % 1004,8 hPa 0,0 l/m 0,0 km/h (0 Bft) N 0,00 h 0,000 mm 0,0 UV-I 0 W/m 12,6 C 14,4 C 0,0 km/h (0 Bft) 0,00 %
15.06.2015 02:00 13,5 C 93 % 1005,3 hPa 0,0 l/m 0,0 km/h (0 Bft) N 0,00 h 0,000 mm 0,0 UV-I 0 W/m 12,4 C 13,5 C 0,0 km/h (0 Bft) 0,00 %
15.06.2015 03:00 13,7 C 94 % 1005,6 hPa 0,0 l/m 0,0 km/h (0 Bft) S-SW 0,00 h 0,000 mm 0,0 UV-I 0 W/m 12,8 C 13,7 C 0,0 km/h (0 Bft) 0,00 %
15.06.2015 04:00 14,1 C 89 % 1006,6 hPa 0,0 l/m 5,8 km/h (2 Bft) N 0,00 h 0,000 mm 0,0 UV-I 0 W/m 12,3 C 14,1 C 7,9 km/h (2 Bft) 0,00 %
15.06.2015 05:00 14,8 C 85 % 1006,9 hPa 0,0 l/m 0,0 km/h (0 Bft) SW 0,00 h 0,000 mm 0,0 UV-I 0 W/m 12,3 C 14,8 C 0,0 km/h (0 Bft) 0,00 %
15.06.2015 06:00 15,2 C 87 % 1007,5 hPa 0,3 l/m 1,4 km/h (1 Bft) N 0,00 h 0,000 mm 0,0 UV-I 0 W/m 13,0 C 15,2 C 4,0 km/h (1 Bft) 0,00 %
15.06.2015 07:00 14,5 C 90 % 1008,3 hPa 0,3 l/m 0,6 km/h (0 Bft) SW 0,00 h 0,000 mm 0,0 UV-I 0 W/m 12,9 C 14,5 C 4,0 km/h (1 Bft) 0,00 %
15.06.2015 08:00 16,8 C 92 % 1010,8 hPa 0,3 l/m 1,8 km/h (1 Bft) SW 0,00 h 0,000 mm 0,0 UV-I 0 W/m 15,5 C 16,8 C 4,0 km/h (1 Bft) 0,00 %
15.06.2015 09:00 16,7 C 94 % 1011,2 hPa 0,3 l/m 1,4 km/h (1 Bft) N 0,00 h 0,000 mm 0,0 UV-I 0 W/m 15,7 C 16,7 C 4,0 km/h (1 Bft) 0,00 %
15.06.2015 10:00 17,5 C 93 % 1008,9 hPa 0,6 l/m 0,0 km/h (0 Bft) N 0,00 h 0,000 mm 0,0 UV-I 0 W/m 16,4 C 17,5 C 0,0 km/h (0 Bft) 0,00 %
15.06.2015 11:00 17,5 C 92 % 1009,6 hPa 0,3 l/m 0,4 km/h (0 Bft) N 0,00 h 0,000 mm 0,0 UV-I 0 W/m 16,2 C 17,5 C 4,0 km/h (1 Bft) 0,00 %
15.06.2015 12:00 17,4 C 92 % 1010,1 hPa 0,0 l/m 0,0 km/h (0 Bft) N 0,00 h 0,000 mm 0,0 UV-I 0 W/m 16,1 C 17,4 C 0,0 km/h (0 Bft) 0,00 %
15.06.2015 13:00 18,0 C 89 % 1010,3 hPa 0,0 l/m 0,0 km/h (0 Bft) N 0,00 h 0,000 mm 0,0 UV-I 0 W/m 16,2 C 18,0 C 0,0 km/h (0 Bft) 0,00 %
15.06.2015 14:00 18,4 C 86 % 1010,5 hPa 0,0 l/m 0,0 km/h (0 Bft) N 0,00 h 0,000 mm 0,0 UV-I 0 W/m 16,0 C 18,4 C 0,0 km/h (0 Bft) 0,00 %
15.06.2015 15:00 17,9 C 86 % 1010,6 hPa 0,0 l/m 0,0 km/h (0 Bft) N 0,00 h 0,000 mm 0,0 UV-I 0 W/m 15,5 C 17,9 C 0,0 km/h (0 Bft) 0,00 %
15.06.2015 16:00 17,8 C 86 % 1010,6 hPa 0,0 l/m 1,4 km/h (1 Bft) O-SO 0,00 h 0,000 mm 0,0 UV-I 0 W/m 15,4 C 17,8 C 4,0 km/h (1 Bft) 0,00 %
15.06.2015 17:00 17,5 C 83 % 1010,7 hPa 0,0 l/m 5,5 km/h (1 Bft) O 0,00 h 0,000 mm 0,0 UV-I 0 W/m 14,6 C 17,5 C 7,9 km/h (2 Bft) 0,00 %
15.06.2015 18:00 17,3 C 83 % 1010,7 hPa 0,0 l/m 5,5 km/h (1 Bft) N 0,00 h 0,000 mm 0,0 UV-I 0 W/m 14,4 C 17,3 C 7,9 km/h (2 Bft) 0,00 %
15.06.2015 19:00 17,0 C 83 % 1011,8 hPa 0,0 l/m 0,0 km/h (0 Bft) N 0,00 h 0,000 mm 0,0 UV-I 0 W/m 14,1 C 17,0 C 0,0 km/h (0 Bft) 0,00 %
15.06.2015 20:00 16,6 C 85 % 1011,9 hPa 0,0 l/m 0,0 km/h (0 Bft) N 0,00 h 0,000 mm 0,0 UV-I 0 W/m 14,1 C 16,6 C 0,0 km/h (0 Bft) 0,00 %
15.06.2015 21:00 16,2 C 84 % 1012,7 hPa 0,3 l/m 0,3 km/h (0 Bft) N 0,00 h 0,000 mm 0,0 UV-I 0 W/m 13,5 C 16,2 C 4,0 km/h (1 Bft) 0,00 %
15.06.2015 22:00 15,8 C 88 % 1013,8 hPa 0,0 l/m 0,3 km/h (0 Bft) O 0,00 h 0,000 mm 0,0 UV-I 0 W/m 13,8 C 15,8 C 4,0 km/h (1 Bft) 0,00 %
15.06.2015 23:00 15,8 C 87 % 1014,5 hPa 0,0 l/m 2,1 km/h (1 Bft) O-NO 0,00 h 0,000 mm 0,0 UV-I 0 W/m 13,6 C 15,8 C 4,0 km/h (1 Bft) 0,00 %
16.06.2015 00:00 14,9 C 91 % 1016,6 hPa 0,3 l/m 0,4 km/h (0 Bft) O-NO 0,00 h 0,000 mm 0,0 UV-I 0 W/m 13,4 C 14,9 C 1,0 km/h (0 Bft) 0,00 %
16.06.2015 01:00 14,8 C 94 % 1016,8 hPa 0,0 l/m 0,0 km/h (0 Bft) N 0,00 h 0,000 mm 0,0 UV-I 0 W/m 13,8 C 14,8 C 0,0 km/h (0 Bft) 0,00 %
16.06.2015 02:00 14,5 C 93 % 1017,0 hPa 0,3 l/m 0,2 km/h (0 Bft) NO 0,00 h 0,000 mm 0,0 UV-I 0 W/m 13,4 C 14,5 C 0,3 km/h (0 Bft) 0,00 %
16.06.2015 03:00 14,4 C 94 % 1017,0 hPa 0,0 l/m 0,0 km/h (0 Bft) N 0,00 h 0,000 mm 0,0 UV-I 0 W/m 13,4 C 14,4 C 0,0 km/h (0 Bft) 0,00 %
16.06.2015 04:00 14,2 C 95 % 1017,3 hPa 0,0 l/m 0,0 km/h (0 Bft) N 0,00 h 0,000 mm 0,0 UV-I 0 W/m 13,4 C 14,2 C 0,0 km/h (0 Bft) 0,00 %
16.06.2015 05:00 14,1 C 93 % 1017,6 hPa 0,0 l/m 0,0 km/h (0 Bft) N 0,00 h 0,000 mm 0,0 UV-I 2 W/m 13,0 C 14,1 C 0,0 km/h (0 Bft) 0,00 %
16.06.2015 06:00 14,4 C 90 % 1017,9 hPa 0,0 l/m 0,0 km/h (0 Bft) N 0,00 h 0,000 mm 1,0 UV-I 28 W/m 12,8 C 14,4 C 0,0 km/h (0 Bft) 0,00 %
16.06.2015 07:00 15,1 C 85 % 1017,9 hPa 0,0 l/m 0,0 km/h (0 Bft) N 0,00 h 0,000 mm 1,0 UV-I 58 W/m 12,7 C 15,1 C 0,0 km/h (0 Bft) 0,00 %
16.06.2015 08:00 16,5 C 78 % 1017,9 hPa 0,0 l/m 0,0 km/h (0 Bft) N 0,00 h 0,000 mm 1,0 UV-I 111 W/m 12,7 C 16,5 C 0,0 km/h (0 Bft) 0,00 %
16.06.2015 09:00 17,6 C 72 % 1017,7 hPa 0,0 l/m 0,0 km/h (0 Bft) N 0,00 h 0,000 mm 1,8 UV-I 202 W/m 12,4 C 17,6 C 0,0 km/h (0 Bft) 0,00 %
16.06.2015 10:00 19,0 C 64 % 1017,5 hPa 0,0 l/m 0,1 km/h (0 Bft) N 0,00 h 0,000 mm 2,1 UV-I 310 W/m 12,0 C 19,0 C 0,7 km/h (0 Bft) 0,00 %
16.06.2015 11:00 19,7 C 62 % 1017,3 hPa 0,0 l/m 0,1 km/h (0 Bft) W-SW 0,00 h 0,000 mm 2,0 UV-I 404 W/m 12,1 C 19,7 C 0,7 km/h (0 Bft) 0,00 %
16.06.2015 12:00 18,8 C 63 % 1017,2 hPa 0,0 l/m 0,4 km/h (0 Bft) NW 0,00 h 0,000 mm 2,0 UV-I 322 W/m 11,5 C 18,8 C 0,7 km/h (0 Bft) 0,00 %
16.06.2015 13:00 18,1 C 64 % 1017,0 hPa 0,0 l/m 0,1 km/h (0 Bft) NW 0,00 h 0,000 mm 1,2 UV-I 260 W/m 11,1 C 18,1 C 0,3 km/h (0 Bft) 0,00 %
16.06.2015 14:00 17,4 C 64 % 1017,0 hPa 0,0 l/m 0,4 km/h (0 Bft) NO 0,00 h 0,000 mm 1,0 UV-I 159 W/m 10,5 C 17,4 C 0,7 km/h (0 Bft) 0,00 %
16.06.2015 15:00 16,6 C 74 % 1016,9 hPa 0,0 l/m 0,0 km/h (0 Bft) N 0,00 h 0,000 mm 1,0 UV-I 112 W/m 11,9 C 16,6 C 0,3 km/h (0 Bft) 0,00 %
16.06.2015 16:00 16,8 C 70 % 1016,8 hPa 0,0 l/m 0,0 km/h (0 Bft) N 0,00 h 0,000 mm 1,0 UV-I 92 W/m 11,3 C 16,8 C 0,0 km/h (0 Bft) 0,00 %
16.06.2015 17:00 17,2 C 69 % 1016,7 hPa 0,0 l/m 0,1 km/h (0 Bft) N 0,00 h 0,000 mm 1,0 UV-I 114 W/m 11,5 C 17,2 C 0,3 km/h (0 Bft) 0,00 %
16.06.2015 18:00 16,1 C 77 % 1016,9 hPa 0,0 l/m 0,0 km/h (0 Bft) N 0,00 h 0,000 mm 0,0 UV-I 75 W/m 12,1 C 16,1 C 0,0 km/h (0 Bft) 0,00 %
16.06.2015 19:00 15,4 C 82 % 1017,4 hPa 0,0 l/m 0,0 km/h (0 Bft) N 0,00 h 0,000 mm 0,0 UV-I 30 W/m 12,4 C 15,4 C 0,0 km/h (0 Bft) 0,00 %
16.06.2015 20:00 14,9 C 86 % 1017,9 hPa 0,0 l/m 0,0 km/h (0 Bft) N 0,00 h 0,000 mm 0,0 UV-I 11 W/m 12,6 C 14,9 C 0,0 km/h (0 Bft) 0,00 %
16.06.2015 21:00 14,6 C 88 % 1018,3 hPa 0,0 l/m 0,0 km/h (0 Bft) N 0,00 h 0,000 mm 0,0 UV-I 0 W/m 12,6 C 14,6 C 0,0 km/h (0 Bft) 0,00 %
16.06.2015 22:00 14,3 C 89 % 1018,7 hPa 0,0 l/m 0,0 km/h (0 Bft) N 0,00 h 0,000 mm 0,0 UV-I 0 W/m 12,5 C 14,3 C 0,0 km/h (0 Bft) 0,00 %
16.06.2015 23:00 14,1 C 92 % 1019,2 hPa 0,0 l/m 0,0 km/h (0 Bft) N 0,00 h 0,000 mm 0,0 UV-I 0 W/m 12,8 C 14,1 C 0,3 km/h (0 Bft) 0,00 %
17.06.2015 00:00 13,9 C 92 % 1019,3 hPa 0,0 l/m 0,0 km/h (0 Bft) N 0,00 h 0,000 mm 0,0 UV-I 0 W/m 12,6 C 13,9 C 0,0 km/h (0 Bft) 0,00 %
17.06.2015 01:00 13,7 C 92 % 1019,7 hPa 0,0 l/m 0,0 km/h (0 Bft) N 0,00 h 0,000 mm 0,0 UV-I 0 W/m 12,4 C 13,7 C 0,0 km/h (0 Bft) 0,00 %
17.06.2015 02:00 12,5 C 94 % 1020,1 hPa 0,0 l/m 0,0 km/h (0 Bft) N 0,00 h 0,000 mm 0,0 UV-I 0 W/m 11,5 C 12,5 C 0,0 km/h (0 Bft) 0,00 %
17.06.2015 03:00 11,3 C 89 % 1020,4 hPa 0,0 l/m 0,0 km/h (0 Bft) N 0,00 h 0,000 mm 0,0 UV-I 0 W/m 9,5 C 11,3 C 0,0 km/h (0 Bft) 0,00 %
17.06.2015 04:00 10,2 C 94 % 1021,0 hPa 0,0 l/m 0,0 km/h (0 Bft) N 0,00 h 0,000 mm 0,0 UV-I 0 W/m 9,2 C 10,2 C 0,0 km/h (0 Bft) 0,00 %
17.06.2015 05:00 11,4 C 91 % 1021,1 hPa 0,0 l/m 0,0 km/h (0 Bft) N 0,00 h 0,000 mm 1,0 UV-I 14 W/m 10,0 C 11,4 C 0,0 km/h (0 Bft) 0,00 %
17.06.2015 06:00 12,1 C 84 % 1021,3 hPa 0,0 l/m 0,0 km/h (0 Bft) N 0,00 h 0,000 mm 1,0 UV-I 65 W/m 9,4 C 12,1 C 0,0 km/h (0 Bft) 0,00 %
17.06.2015 07:00 14,7 C 63 % 1021,0 hPa 0,0 l/m 2,0 km/h (1 Bft) NO 0,00 h 0,000 mm 2,0 UV-I 74 W/m 7,7 C 14,7 C 4,3 km/h (1 Bft) 0,00 %
17.06.2015 08:00 14,8 C 62 % 1021,4 hPa 0,0 l/m 0,4 km/h (0 Bft) O 0,92 h 0,000 mm 1,2 UV-I 490 W/m 7,4 C 14,8 C 1,3 km/h (1 Bft) 0,00 %
17.06.2015 09:00 17,3 C 56 % 1021,1 hPa 0,0 l/m 0,7 km/h (0 Bft) SW 0,00 h 0,000 mm 3,0 UV-I 224 W/m 8,4 C 17,3 C 1,3 km/h (1 Bft) 0,00 %
17.06.2015 10:00 17,5 C 56 % 1020,6 hPa 0,0 l/m 0,5 km/h (0 Bft) W-SW 0,67 h 0,000 mm 3,8 UV-I 476 W/m 8,5 C 17,5 C 2,0 km/h (1 Bft) 0,00 %
17.06.2015 11:00 18,8 C 48 % 1020,1 hPa 0,0 l/m 0,4 km/h (0 Bft) W-NW 0,75 h 0,000 mm 3,4 UV-I 620 W/m 7,6 C 18,8 C 1,7 km/h (1 Bft) 0,00 %
17.06.2015 12:00 18,4 C 50 % 1019,8 hPa 0,0 l/m 0,3 km/h (0 Bft) SW 0,42 h 0,000 mm 1,8 UV-I 601 W/m 7,7 C 18,4 C 1,0 km/h (0 Bft) 0,00 %
17.06.2015 13:00 18,3 C 51 % 1019,2 hPa 0,0 l/m 0,6 km/h (0 Bft) W-SW 0,08 h 0,000 mm 1,8 UV-I 377 W/m 7,9 C 18,3 C 2,0 km/h (1 Bft) 0,00 %
17.06.2015 14:00 18,6 C 50 % 1019,0 hPa 0,0 l/m 0,7 km/h (0 Bft) W-SW 0,08 h 0,000 mm 2,0 UV-I 297 W/m 8,0 C 18,6 C 1,3 km/h (1 Bft) 0,00 %
17.06.2015 15:00 16,9 C 56 % 1018,9 hPa 0,0 l/m 0,8 km/h (0 Bft) W-SW 0,08 h 0,000 mm 1,0 UV-I 317 W/m 8,0 C 16,9 C 2,7 km/h (1 Bft) 0,00 %
17.06.2015 16:00 17,6 C 53 % 1018,4 hPa 0,0 l/m 0,3 km/h (0 Bft) N-NO 0,00 h 0,000 mm 1,4 UV-I 159 W/m 7,8 C 17,6 C 1,3 km/h (1 Bft) 0,00 %
17.06.2015 17:00 17,8 C 52 % 1018,1 hPa 0,0 l/m 1,1 km/h (1 Bft) O-SO 0,25 h 0,000 mm 1,0 UV-I 291 W/m 7,7 C 17,8 C 3,0 km/h (1 Bft) 0,00 %
17.06.2015 18:00 18,5 C 46 % 1018,0 hPa 0,0 l/m 0,2 km/h (0 Bft) N 0,92 h 0,000 mm 1,0 UV-I 457 W/m 6,7 C 18,5 C 1,3 km/h (1 Bft) 0,00 %
17.06.2015 19:00 16,7 C 57 % 1018,4 hPa 0,0 l/m 0,0 km/h (0 Bft) N 1,00 h 0,000 mm 0,0 UV-I 341 W/m 8,0 C 16,7 C 0,0 km/h (0 Bft) 0,00 %
17.06.2015 20:00 13,2 C 76 % 1019,3 hPa 0,0 l/m 0,0 km/h (0 Bft) N 0,33 h 0,000 mm 0,0 UV-I 50 W/m 9,0 C 13,2 C 0,0 km/h (0 Bft) 0,00 %
17.06.2015 21:00 11,2 C 86 % 1019,9 hPa 0,0 l/m 0,0 km/h (0 Bft) N 0,00 h 0,000 mm 0,0 UV-I 0 W/m 8,9 C 11,2 C 0,3 km/h (0 Bft) 0,00 %
17.06.2015 22:00 10,2 C 87 % 1020,1 hPa 0,0 l/m 0,0 km/h (0 Bft) N 0,00 h 0,000 mm 0,0 UV-I 0 W/m 8,1 C 10,2 C 0,0 km/h (0 Bft) 0,00 %
17.06.2015 23:00 9,4 C 85 % 1020,1 hPa 0,0 l/m 0,0 km/h (0 Bft) N 0,00 h 0,000 mm 0,0 UV-I 0 W/m 7,0 C 9,4 C 0,0 km/h (0 Bft) 0,00 %
18.06.2015 00:00 9,1 C 89 % 1019,8 hPa 0,0 l/m 0,0 km/h (0 Bft) N 0,00 h 0,000 mm 0,0 UV-I 0 W/m 7,4 C 9,1 C 0,0 km/h (0 Bft) 0,00 %
18.06.2015 01:00 9,5 C 94 % 1019,1 hPa 0,0 l/m 0,0 km/h (0 Bft) N 0,00 h 0,000 mm 0,0 UV-I 0 W/m 8,6 C 9,5 C 0,0 km/h (0 Bft) 0,00 %
18.06.2015 02:00 9,0 C 96 % 1018,7 hPa 0,0 l/m 0,0 km/h (0 Bft) N 0,00 h 0,000 mm 0,0 UV-I 0 W/m 8,3 C 9,0 C 0,0 km/h (0 Bft) 0,00 %
18.06.2015 03:00 8,5 C 97 % 1018,4 hPa 0,0 l/m 0,0 km/h (0 Bft) N 0,00 h 0,000 mm 0,0 UV-I 0 W/m 8,0 C 8,5 C 0,0 km/h (0 Bft) 0,00 %
18.06.2015 04:00 8,7 C 98 % 1018,1 hPa 0,0 l/m 0,0 km/h (0 Bft) N 0,00 h 0,000 mm 0,0 UV-I 0 W/m 8,4 C 8,7 C 0,0 km/h (0 Bft) 0,00 %
18.06.2015 05:00 10,6 C 94 % 1017,6 hPa 0,0 l/m 0,0 km/h (0 Bft) N 0,25 h 0,000 mm 1,0 UV-I 29 W/m 9,7 C 10,6 C 0,0 km/h (0 Bft) 0,00 %
18.06.2015 06:00 13,1 C 80 % 1017,1 hPa 0,0 l/m 0,0 km/h (0 Bft) N 0,00 h 0,000 mm 1,0 UV-I 94 W/m 9,7 C 13,1 C 0,0 km/h (0 Bft) 0,00 %
18.06.2015 07:00 15,7 C 68 % 1016,8 hPa 0,0 l/m 0,5 km/h (0 Bft) W-SW 0,25 h 0,000 mm 1,6 UV-I 180 W/m 9,9 C 15,7 C 1,0 km/h (0 Bft) 0,00 %
18.06.2015 08:00 16,7 C 67 % 1016,7 hPa 0,0 l/m 0,4 km/h (0 Bft) SW 0,83 h 0,000 mm 1,3 UV-I 383 W/m 10,6 C 16,7 C 1,3 km/h (1 Bft) 0,00 %
18.06.2015 09:00 17,4 C 66 % 1016,3 hPa 0,0 l/m 0,8 km/h (0 Bft) W-SW 0,17 h 0,000 mm 2,0 UV-I 245 W/m 11,0 C 17,4 C 1,3 km/h (1 Bft) 0,00 %
18.06.2015 10:00 18,4 C 61 % 1015,8 hPa 0,0 l/m 0,3 km/h (0 Bft) SW 0,00 h 0,000 mm 1,5 UV-I 300 W/m 10,8 C 18,4 C 1,3 km/h (1 Bft) 0,00 %
18.06.2015 11:00 19,3 C 55 % 1015,0 hPa 0,0 l/m 1,1 km/h (1 Bft) S 0,00 h 0,000 mm 2,3 UV-I 251 W/m 9,9 C 19,3 C 2,7 km/h (1 Bft) 0,00 %
18.06.2015 12:00 20,6 C 50 % 1014,3 hPa 0,0 l/m 3,7 km/h (1 Bft) W-SW 0,17 h 0,000 mm 2,7 UV-I 410 W/m 9,8 C 20,5 C 6,6 km/h (2 Bft) 0,00 %
18.06.2015 13:00 20,0 C 51 % 1013,8 hPa 0,0 l/m 4,9 km/h (1 Bft) SW 0,50 h 0,000 mm 2,1 UV-I 479 W/m 9,5 C 19,7 C 8,3 km/h (2 Bft) 0,00 %
18.06.2015 14:00 20,6 C 49 % 1013,2 hPa 0,0 l/m 2,9 km/h (1 Bft) SO 0,17 h 0,000 mm 3,2 UV-I 374 W/m 9,6 C 20,5 C 6,3 km/h (2 Bft) 0,00 %
18.06.2015 15:00 18,9 C 54 % 1013,2 hPa 0,0 l/m 4,7 km/h (1 Bft) W-SW 0,58 h 0,000 mm 1,0 UV-I 469 W/m 9,4 C 18,5 C 7,6 km/h (2 Bft) 0,00 %
18.06.2015 16:00 17,4 C 65 % 1013,1 hPa 0,0 l/m 3,4 km/h (1 Bft) W-SW 0,00 h 0,000 mm 1,0 UV-I 124 W/m 10,7 C 17,3 C 6,6 km/h (2 Bft) 0,00 %
18.06.2015 17:00 15,7 C 77 % 1013,3 hPa 0,0 l/m 1,6 km/h (1 Bft) W-SW 0,00 h 0,000 mm 1,0 UV-I 87 W/m 11,7 C 15,7 C 4,0 km/h (1 Bft) 0,00 %
18.06.2015 18:00 14,4 C 90 % 1013,3 hPa 0,3 l/m 0,4 km/h (0 Bft) W-SW 0,00 h 0,000 mm 0,0 UV-I 41 W/m 12,8 C 14,4 C 1,7 km/h (1 Bft) 0,00 %
18.06.2015 19:00 14,5 C 92 % 1013,0 hPa 0,0 l/m 0,4 km/h (0 Bft) O-NO 0,00 h 0,000 mm 0,0 UV-I 15 W/m 13,1 C 14,5 C 2,0 km/h (1 Bft) 0,00 %
18.06.2015 20:00 14,4 C 91 % 1012,9 hPa 0,0 l/m 1,5 km/h (1 Bft) N-NO 0,00 h 0,000 mm 0,0 UV-I 1 W/m 13,0 C 14,4 C 4,6 km/h (1 Bft) 0,00 %
18.06.2015 21:00 14,3 C 93 % 1012,9 hPa 0,0 l/m 1,2 km/h (1 Bft) W-SW 0,00 h 0,000 mm 0,0 UV-I 0 W/m 13,2 C 14,3 C 3,3 km/h (1 Bft) 0,00 %
18.06.2015 22:00 14,4 C 93 % 1012,7 hPa 0,3 l/m 0,4 km/h (0 Bft) S-SW 0,00 h 0,000 mm 0,0 UV-I 0 W/m 13,3 C 14,4 C 2,7 km/h (1 Bft) 0,00 %
18.06.2015 23:00 14,4 C 95 % 1012,3 hPa 1,2 l/m 0,3 km/h (0 Bft) W-SW 0,00 h 0,000 mm 0,0 UV-I 0 W/m 13,6 C 14,4 C 1,0 km/h (0 Bft) 0,00 %
19.06.2015 00:00 14,3 C 96 % 1011,9 hPa 0,0 l/m 0,9 km/h (0 Bft) W-SW 0,00 h 0,000 mm 0,0 UV-I 0 W/m 13,7 C 14,3 C 2,0 km/h (1 Bft) 0,00 %
19.06.2015 01:00 14,3 C 97 % 1011,5 hPa 0,9 l/m 0,0 km/h (0 Bft) N 0,00 h 0,000 mm 0,0 UV-I 0 W/m 13,8 C 14,3 C 0,3 km/h (0 Bft) 0,00 %
19.06.2015 02:00 14,3 C 97 % 1011,5 hPa 0,0 l/m 0,3 km/h (0 Bft) W-SW 0,00 h 0,000 mm 0,0 UV-I 0 W/m 13,8 C 14,3 C 1,7 km/h (1 Bft) 0,00 %
19.06.2015 03:00 14,0 C 97 % 1011,8 hPa 0,3 l/m 4,7 km/h (1 Bft) W-SW 0,00 h 0,000 mm 0,0 UV-I 0 W/m 13,6 C 13,5 C 7,3 km/h (2 Bft) 0,00 %
19.06.2015 04:00 13,2 C 94 % 1012,6 hPa 0,0 l/m 3,0 km/h (1 Bft) W-SW 0,00 h 0,000 mm 0,0 UV-I 0 W/m 12,3 C 13,2 C 6,3 km/h (2 Bft) 0,00 %
19.06.2015 05:00 13,4 C 91 % 1013,0 hPa 0,0 l/m 2,6 km/h (1 Bft) NO 0,00 h 0,000 mm 1,0 UV-I 8 W/m 12,0 C 13,4 C 5,6 km/h (1 Bft) 0,00 %
19.06.2015 06:00 13,6 C 88 % 1013,5 hPa 0,0 l/m 2,8 km/h (1 Bft) SW 0,00 h 0,000 mm 1,0 UV-I 59 W/m 11,6 C 13,6 C 5,3 km/h (1 Bft) 0,00 %
19.06.2015 07:00 14,2 C 83 % 1014,1 hPa 0,0 l/m 3,0 km/h (1 Bft) W-SW 0,00 h 0,000 mm 1,1 UV-I 51 W/m 11,3 C 14,2 C 5,0 km/h (1 Bft) 0,00 %
19.06.2015 08:00 15,6 C 76 % 1013,8 hPa 0,0 l/m 2,9 km/h (1 Bft) W-SW 0,00 h 0,000 mm 1,3 UV-I 152 W/m 11,3 C 15,5 C 5,3 km/h (1 Bft) 0,00 %
19.06.2015 09:00 16,2 C 71 % 1013,8 hPa 0,0 l/m 3,2 km/h (1 Bft) W-SW 0,08 h 0,000 mm 1,8 UV-I 259 W/m 10,8 C 16,0 C 5,0 km/h (1 Bft) 0,00 %
19.06.2015 10:00 17,2 C 67 % 1013,7 hPa 0,0 l/m 3,4 km/h (1 Bft) SW 0,08 h 0,000 mm 2,5 UV-I 307 W/m 10,9 C 17,1 C 6,3 km/h (2 Bft) 0,00 %
19.06.2015 11:00 16,1 C 69 % 1014,2 hPa 0,0 l/m 4,1 km/h (1 Bft) S-SW 0,33 h 0,000 mm 1,8 UV-I 460 W/m 10,4 C 15,8 C 8,0 km/h (2 Bft) 0,00 %
19.06.2015 12:00 17,1 C 65 % 1014,3 hPa 0,0 l/m 4,3 km/h (1 Bft) NW 0,00 h 0,000 mm 3,7 UV-I 283 W/m 10,5 C 16,8 C 8,6 km/h (2 Bft) 0,00 %
19.06.2015 13:00 16,6 C 68 % 1014,4 hPa 0,0 l/m 4,5 km/h (1 Bft) W-SW 0,58 h 0,000 mm 2,7 UV-I 605 W/m 10,6 C 16,1 C 8,3 km/h (2 Bft) 0,00 %
19.06.2015 14:00 18,3 C 60 % 1013,9 hPa 0,0 l/m 5,8 km/h (2 Bft) W-SW 0,33 h 0,000 mm 2,9 UV-I 484 W/m 10,3 C 17,9 C 8,3 km/h (2 Bft) 0,00 %
19.06.2015 15:00 18,4 C 54 % 1014,0 hPa 0,0 l/m 1,9 km/h (1 Bft) O-SO 0,50 h 0,000 mm 2,0 UV-I 514 W/m 8,8 C 18,4 C 4,6 km/h (1 Bft) 0,00 %
19.06.2015 16:00 17,3 C 58 % 1014,6 hPa 0,0 l/m 2,0 km/h (1 Bft) S 0,67 h 0,000 mm 1,5 UV-I 379 W/m 9,0 C 17,2 C 4,6 km/h (1 Bft) 0,00 %
19.06.2015 17:00 15,4 C 59 % 1015,3 hPa 0,0 l/m 2,3 km/h (1 Bft) O-SO 0,50 h 0,000 mm 1,0 UV-I 309 W/m 7,4 C 15,4 C 4,6 km/h (1 Bft) 0,00 %
19.06.2015 18:00 14,5 C 60 % 1016,0 hPa 0,0 l/m 2,4 km/h (1 Bft) W-SW 0,42 h 0,000 mm 1,0 UV-I 210 W/m 6,9 C 14,3 C 5,0 km/h (1 Bft) 0,00 %
19.06.2015 19:00 13,2 C 65 % 1016,5 hPa 0,0 l/m 1,2 km/h (1 Bft) W-SW 0,00 h 0,000 mm 0,0 UV-I 66 W/m 6,8 C 13,2 C 2,0 km/h (1 Bft) 0,00 %
19.06.2015 20:00 12,3 C 71 % 1017,3 hPa 0,0 l/m 0,0 km/h (0 Bft) N 0,00 h 0,000 mm 0,0 UV-I 9 W/m 7,1 C 12,3 C 0,0 km/h (0 Bft) 0,00 %
19.06.2015 21:00 11,8 C 75 % 1017,6 hPa 0,0 l/m 0,0 km/h (0 Bft) N 0,00 h 0,000 mm 0,0 UV-I 0 W/m 7,6 C 11,8 C 0,0 km/h (0 Bft) 0,00 %
19.06.2015 22:00 11,3 C 81 % 1017,9 hPa 0,0 l/m 0,0 km/h (0 Bft) N 0,00 h 0,000 mm 0,0 UV-I 0 W/m 8,2 C 11,3 C 0,0 km/h (0 Bft) 0,00 %
19.06.2015 23:00 11,2 C 82 % 1017,8 hPa 0,0 l/m 0,0 km/h (0 Bft) N 0,00 h 0,000 mm 0,0 UV-I 0 W/m 8,2 C 11,2 C 0,4 km/h (0 Bft) 0,00 %
20.06.2015 00:00 11,1 C 82 % 1017,5 hPa 0,0 l/m 0,0 km/h (0 Bft) N 0,00 h 0,000 mm 0,0 UV-I 0 W/m 8,3 C 11,1 C 0,0 km/h (0 Bft) 0,00 %
20.06.2015 01:00 11,1 C 84 % 1017,1 hPa 0,0 l/m 0,3 km/h (0 Bft) S 0,00 h 0,000 mm 0,0 UV-I 0 W/m 8,4 C 11,1 C 1,3 km/h (1 Bft) 0,00 %
20.06.2015 02:00 10,6 C 85 % 1016,9 hPa 0,0 l/m 1,3 km/h (1 Bft) W-SW 0,00 h 0,000 mm 0,0 UV-I 0 W/m 8,1 C 10,6 C 3,3 km/h (1 Bft) 0,00 %
20.06.2015 03:00 10,2 C 88 % 1016,7 hPa 0,0 l/m 0,5 km/h (0 Bft) W-SW 0,00 h 0,000 mm 0,0 UV-I 0 W/m 8,3 C 10,2 C 2,0 km/h (1 Bft) 0,00 %
20.06.2015 04:00 10,3 C 88 % 1016,5 hPa 0,0 l/m 0,8 km/h (0 Bft) W-SW 0,00 h 0,000 mm 0,0 UV-I 0 W/m 8,4 C 10,3 C 2,7 km/h (1 Bft) 0,00 %
20.06.2015 05:00 11,3 C 85 % 1016,2 hPa 0,0 l/m 1,0 km/h (0 Bft) W-SW 0,00 h 0,000 mm 1,0 UV-I 15 W/m 8,9 C 11,3 C 2,7 km/h (1 Bft) 0,00 %
20.06.2015 06:00 11,7 C 83 % 1016,2 hPa 0,0 l/m 0,9 km/h (0 Bft) W-SW 0,33 h 0,000 mm 1,0 UV-I 108 W/m 8,9 C 11,7 C 3,0 km/h (1 Bft) 0,00 %
20.06.2015 07:00 14,2 C 70 % 1015,6 hPa 0,0 l/m 0,8 km/h (0 Bft) SW 0,00 h 0,000 mm 1,5 UV-I 110 W/m 8,8 C 14,2 C 2,3 km/h (1 Bft) 0,00 %
20.06.2015 08:00 14,1 C 67 % 1015,6 hPa 0,0 l/m 3,7 km/h (1 Bft) SW 0,58 h 0,000 mm 1,6 UV-I 321 W/m 8,1 C 14,0 C 6,0 km/h (2 Bft) 0,00 %
20.06.2015 09:00 15,9 C 59 % 1015,4 hPa 0,0 l/m 3,2 km/h (1 Bft) W-SW 0,25 h 0,000 mm 2,5 UV-I 286 W/m 8,0 C 15,5 C 5,6 km/h (1 Bft) 0,00 %
20.06.2015 10:00 14,9 C 63 % 1015,9 hPa 0,0 l/m 4,4 km/h (1 Bft) W-SW 0,58 h 0,000 mm 2,3 UV-I 424 W/m 8,0 C 14,4 C 7,6 km/h (2 Bft) 0,00 %
20.06.2015 11:00 14,7 C 65 % 1016,1 hPa 0,0 l/m 3,9 km/h (1 Bft) S 0,17 h 0,000 mm 2,6 UV-I 372 W/m 8,3 C 14,5 C 7,3 km/h (2 Bft) 0,00 %
20.06.2015 12:00 12,6 C 75 % 1017,2 hPa 0,0 l/m 5,1 km/h (1 Bft) W-SW 0,50 h 0,000 mm 2,3 UV-I 397 W/m 8,3 C 12,1 C 8,6 km/h (2 Bft) 0,00 %
20.06.2015 13:00 14,3 C 67 % 1017,0 hPa 0,0 l/m 3,7 km/h (1 Bft) W-SW 0,25 h 0,000 mm 3,4 UV-I 407 W/m 8,2 C 14,2 C 6,6 km/h (2 Bft) 0,00 %
20.06.2015 14:00 12,6 C 80 % 1017,4 hPa 0,3 l/m 2,5 km/h (1 Bft) W-SW 0,33 h 0,000 mm 2,2 UV-I 449 W/m 9,2 C 12,4 C 5,0 km/h (1 Bft) 0,00 %
20.06.2015 15:00 12,3 C 76 % 1017,6 hPa 0,0 l/m 4,5 km/h (1 Bft) W-SW 0,42 h 0,000 mm 1,6 UV-I 442 W/m 8,3 C 11,9 C 6,9 km/h (2 Bft) 0,00 %
20.06.2015 16:00 12,8 C 72 % 1017,4 hPa 0,0 l/m 2,8 km/h (1 Bft) S 0,17 h 0,000 mm 1,5 UV-I 319 W/m 7,9 C 12,6 C 5,6 km/h (1 Bft) 0,00 %
20.06.2015 17:00 12,2 C 73 % 1017,6 hPa 0,0 l/m 2,6 km/h (1 Bft) W-SW 0,58 h 0,000 mm 1,0 UV-I 345 W/m 7,4 C 12,0 C 6,3 km/h (2 Bft) 0,00 %
20.06.2015 18:00 10,8 C 82 % 1018,4 hPa 0,3 l/m 1,3 km/h (1 Bft) S-SW 0,08 h 0,000 mm 0,0 UV-I 128 W/m 7,7 C 10,8 C 3,3 km/h (1 Bft) 0,00 %
20.06.2015 19:00 9,8 C 87 % 1018,9 hPa 0,0 l/m 0,0 km/h (0 Bft) N 0,00 h 0,000 mm 0,0 UV-I 14 W/m 7,8 C 9,8 C 0,3 km/h (0 Bft) 0,00 %
20.06.2015 20:00 10,2 C 89 % 1019,0 hPa 0,0 l/m 1,0 km/h (0 Bft) O 0,00 h 0,000 mm 0,0 UV-I 16 W/m 8,5 C 10,2 C 3,0 km/h (1 Bft) 0,00 %
20.06.2015 21:00 10,2 C 85 % 1019,4 hPa 0,0 l/m 3,4 km/h (1 Bft) W-SW 0,00 h 0,000 mm 0,0 UV-I 0 W/m 7,8 C 9,9 C 7,3 km/h (2 Bft) 0,00 %
20.06.2015 22:00 9,8 C 86 % 1019,8 hPa 0,0 l/m 1,8 km/h (1 Bft) W-SW 0,00 h 0,000 mm 0,0 UV-I 0 W/m 7,6 C 9,5 C 4,0 km/h (1 Bft) 0,00 %
20.06.2015 23:00 9,7 C 88 % 1020,0 hPa 0,0 l/m 0,2 km/h (0 Bft) N 0,00 h 0,000 mm 0,0 UV-I 0 W/m 7,8 C 9,7 C 2,0 km/h (1 Bft) 0,00 %
21.06.2015 00:00 9,6 C 89 % 1020,0 hPa 0,0 l/m 1,2 km/h (1 Bft) W-SW 0,00 h 0,000 mm 0,0 UV-I 0 W/m 7,9 C 9,5 C 4,0 km/h (1 Bft) 0,00 %
21.06.2015 01:00 9,7 C 89 % 1019,7 hPa 0,0 l/m 2,4 km/h (1 Bft) W-SW 0,00 h 0,000 mm 0,0 UV-I 0 W/m 8,0 C 9,4 C 5,3 km/h (1 Bft) 0,00 %
21.06.2015 02:00 9,7 C 89 % 1019,4 hPa 0,0 l/m 1,3 km/h (1 Bft) W-SW 0,00 h 0,000 mm 0,0 UV-I 0 W/m 8,0 C 9,7 C 3,0 km/h (1 Bft) 0,00 %
21.06.2015 03:00 9,6 C 90 % 1019,4 hPa 0,0 l/m 0,9 km/h (0 Bft) W-SW 0,00 h 0,000 mm 0,0 UV-I 0 W/m 8,1 C 9,6 C 2,7 km/h (1 Bft) 0,00 %
21.06.2015 04:00 9,6 C 91 % 1019,3 hPa 0,0 l/m 0,0 km/h (0 Bft) N 0,00 h 0,000 mm 0,0 UV-I 0 W/m 8,1 C 9,6 C 0,3 km/h (0 Bft) 0,00 %
21.06.2015 05:00 9,4 C 92 % 1019,4 hPa 0,0 l/m 0,0 km/h (0 Bft) N 0,00 h 0,000 mm 0,0 UV-I 7 W/m 8,2 C 9,4 C 0,3 km/h (0 Bft) 0,00 %
21.06.2015 06:00 9,9 C 90 % 1019,5 hPa 0,0 l/m 2,4 km/h (1 Bft) W-SW 0,00 h 0,000 mm 1,0 UV-I 60 W/m 8,3 C 9,9 C 4,3 km/h (1 Bft) 0,00 %
21.06.2015 07:00 11,1 C 83 % 1019,4 hPa 0,0 l/m 0,9 km/h (0 Bft) S 0,00 h 0,000 mm 1,0 UV-I 126 W/m 8,2 C 11,1 C 3,0 km/h (1 Bft) 0,00 %
21.06.2015 08:00 12,2 C 78 % 1019,4 hPa 0,0 l/m 1,6 km/h (1 Bft) W-SW 0,00 h 0,000 mm 1,0 UV-I 206 W/m 8,5 C 12,2 C 3,6 km/h (1 Bft) 0,00 %
21.06.2015 09:00 13,3 C 73 % 1019,1 hPa 0,0 l/m 0,4 km/h (0 Bft) W-SW 0,00 h 0,000 mm 1,4 UV-I 268 W/m 8,6 C 13,3 C 1,3 km/h (1 Bft) 0,00 %
21.06.2015 10:00 14,6 C 66 % 1018,5 hPa 0,0 l/m 0,7 km/h (0 Bft) NO 0,25 h 0,000 mm 1,9 UV-I 296 W/m 8,4 C 14,6 C 2,7 km/h (1 Bft) 0,00 %
21.06.2015 11:00 14,1 C 67 % 1018,4 hPa 0,0 l/m 0,5 km/h (0 Bft) O-NO 0,00 h 0,000 mm 1,9 UV-I 295 W/m 8,1 C 14,1 C 1,7 km/h (1 Bft) 0,00 %
21.06.2015 12:00 15,8 C 61 % 1018,0 hPa 0,0 l/m 1,9 km/h (1 Bft) SW 0,17 h 0,000 mm 2,9 UV-I 407 W/m 8,1 C 15,7 C 4,0 km/h (1 Bft) 0,00 %
21.06.2015 13:00 15,8 C 59 % 1017,7 hPa 0,0 l/m 1,9 km/h (1 Bft) W-NW 0,42 h 0,000 mm 3,1 UV-I 537 W/m 7,7 C 15,7 C 3,6 km/h (1 Bft) 0,00 %
21.06.2015 14:00 16,5 C 57 % 1017,2 hPa 0,0 l/m 2,0 km/h (1 Bft) W-SW 0,00 h 0,000 mm 1,5 UV-I 237 W/m 8,0 C 16,4 C 4,6 km/h (1 Bft) 0,00 %
21.06.2015 15:00 15,4 C 61 % 1017,4 hPa 0,0 l/m 1,4 km/h (1 Bft) W-SW 0,00 h 0,000 mm 1,1 UV-I 139 W/m 7,9 C 15,3 C 2,3 km/h (1 Bft) 0,00 %
21.06.2015 16:00 15,1 C 62 % 1017,4 hPa 0,0 l/m 2,0 km/h (1 Bft) W-SW 0,00 h 0,000 mm 1,0 UV-I 169 W/m 7,9 C 15,1 C 5,3 km/h (1 Bft) 0,00 %
21.06.2015 17:00 15,6 C 60 % 1017,0 hPa 0,0 l/m 1,2 km/h (1 Bft) W-SW 0,08 h 0,000 mm 1,1 UV-I 214 W/m 7,8 C 15,6 C 2,7 km/h (1 Bft) 0,00 %
21.06.2015 18:00 16,0 C 61 % 1016,7 hPa 0,0 l/m 0,8 km/h (0 Bft) W-SW 0,08 h 0,000 mm 1,0 UV-I 140 W/m 8,5 C 16,0 C 2,7 km/h (1 Bft) 0,00 %
21.06.2015 19:00 15,0 C 67 % 1016,7 hPa 0,0 l/m 0,6 km/h (0 Bft) SW 0,00 h 0,000 mm 1,0 UV-I 70 W/m 9,0 C 15,0 C 1,3 km/h (1 Bft) 0,00 %
21.06.2015 20:00 14,5 C 73 % 1016,8 hPa 0,0 l/m 0,0 km/h (0 Bft) N 0,00 h 0,000 mm 0,0 UV-I 7 W/m 9,7 C 14,5 C 0,0 km/h (0 Bft) 0,00 %
21.06.2015 21:00 12,8 C 81 % 1017,1 hPa 0,0 l/m 0,0 km/h (0 Bft) N 0,00 h 0,000 mm 0,0 UV-I 0 W/m 9,6 C 12,8 C 0,0 km/h (0 Bft) 0,00 %
21.06.2015 22:00 11,5 C 86 % 1017,3 hPa 0,0 l/m 0,0 km/h (0 Bft) N 0,00 h 0,000 mm 0,0 UV-I 0 W/m 9,2 C 11,5 C 0,0 km/h (0 Bft) 0,00 %
21.06.2015 23:00 10,8 C 89 % 1017,2 hPa 0,0 l/m 0,0 km/h (0 Bft) N 0,00 h 0,000 mm 0,0 UV-I 0 W/m 9,0 C 10,8 C 0,0 km/h (0 Bft) 0,00 %
Min-Datum _ 18.06.15 17.06.15 15.06.15 - 15.06.15 - - - - - 17.06.15 20.06.15 15.06.15 15.06.15
_ Min-Zeit 03:45 18:35 00:00 - 00:00 - - - - - 18:35 21:35 00:00 00:00
Minimum _ 8,2 C 43 % 1004,6 hPa - 0,0 km/h (0 Bft) - - - - - 5,9 C 7,0 C 0,0 km/h (0 Bft) 0,00 %
Max-Datum _ 18.06.15 18.06.15 17.06.15 18.06.15 19.06.15 - 17.06.15 15.06.15 21.06.15 17.06.15 15.06.15 18.06.15 19.06.15 15.06.15
_ Max-Zeit 14:45 04:40 08:50 23:35 13:40 - 08:00 00:00 12:40 13:55 10:00 14:45 13:40 00:00
Maximum _ 21,4 C 99 % 1021,6 hPa 1,2 l/m 18,4 km/h
W-SW (3 Bft)
- 0,08 h 0,000 mm 7,0 UV-I 1047 W/m 16,4 C 21,3 C 28,1 km/h
W-SW (4 Bft)
0,00 %
Durchschnitt _ 14,5 C 78 % 1016,0 hPa #6,6 l/m 1,2 km/h (1 Bft) W-SW #17:10 h #0,000 mm 1,7 UV-I 230 W/m 10,4 C 14,4 C 2,5 km/h (1 Bft) 0,00 %